Terminal Aerodrome Forecast
Issued by NWS Indianapolis, IN

Home | Current Version | Previous Version | Text Only | Print | Product List | Glossary On
Versions: 1 2 3 4 5 6 7 8 9 10 11 12 13 14 15 16 17 18 19 20 21 22 23 24 25 26 27 28
428
FTUS43 KIND 141730
TAFIND
TAF
KIND 141730Z 1418/1524 12014KT 3SM -SHSN SCT025 OVC050
     FM141900 12014KT 3/4SM -SN BR OVC007
     FM150000 13010KT 2SM -SHSN BR OVC009
     FM150400 15008KT 4SM -SHSN BR OVC012
     FM150800 19007KT 6SM BR VCSH OVC015=

USA.gov is the U.S. government's official web portal to all federal, state and local government web resources and services.